createdAt,value
2023-03-04T00:00:00.495Z,4.07
2023-03-04T00:02:27.812Z,5.15
2023-03-04T00:04:55.006Z,4.72
2023-03-04T00:07:22.220Z,4.45
2023-03-04T00:09:49.512Z,4.40
2023-03-04T00:12:16.759Z,4.45
2023-03-04T00:14:44.040Z,4.13
2023-03-04T00:17:11.252Z,4.22
2023-03-04T00:19:38.562Z,4.55
2023-03-04T00:22:06.348Z,3.90
2023-03-04T00:24:33.685Z,4.80
2023-03-04T00:27:01.030Z,4.47
2023-03-04T00:29:28.268Z,4.10
2023-03-04T00:31:55.653Z,4.65
2023-03-04T00:34:23.101Z,4.43
2023-03-04T00:36:50.364Z,4.43
2023-03-04T00:39:17.580Z,4.60
2023-03-04T00:41:44.889Z,5.13
2023-03-04T00:44:12.063Z,4.47
2023-03-04T00:46:39.256Z,3.50
2023-03-04T00:49:06.526Z,4.07
2023-03-04T00:51:33.699Z,4.65
2023-03-04T00:54:01.140Z,3.70
2023-03-04T00:56:28.627Z,4.60
2023-03-04T00:58:56.071Z,3.78
2023-03-04T01:01:23.430Z,5.38
2023-03-04T01:03:51.934Z,4.10
2023-03-04T01:06:19.393Z,4.13
2023-03-04T01:08:46.601Z,4.03
2023-03-04T01:11:13.812Z,4.32
2023-03-04T01:13:41.122Z,4.35
2023-03-04T01:16:08.597Z,3.70
2023-03-04T01:18:35.789Z,4.30
2023-03-04T01:21:03.040Z,3.70
2023-03-04T01:23:30.297Z,4.28
2023-03-04T01:25:57.567Z,3.97
2023-03-04T01:28:24.797Z,4.15
2023-03-04T01:30:51.992Z,3.75
2023-03-04T01:33:19.241Z,4.32
2023-03-04T01:35:46.463Z,4.25
2023-03-04T01:38:14.373Z,4.45
2023-03-04T01:40:41.714Z,3.75
2023-03-04T01:43:12.324Z,5.10
2023-03-04T01:45:40.397Z,3.83
2023-03-04T01:48:09.915Z,3.38
2023-03-04T01:50:37.122Z,4.60
2023-03-04T01:53:04.591Z,4.18
2023-03-04T01:55:32.149Z,4.78
2023-03-04T01:57:59.517Z,4.97
2023-03-04T02:00:31.354Z,3.95
2023-03-04T02:03:02.296Z,3.70
2023-03-04T02:05:30.130Z,3.92
2023-03-04T02:07:58.484Z,3.33
2023-03-04T02:10:25.929Z,3.65
2023-03-04T02:12:53.477Z,3.97
2023-03-04T02:15:23.589Z,4.40
2023-03-04T02:17:51.050Z,3.53
2023-03-04T02:20:27.739Z,3.22
2023-03-04T02:23:00.408Z,4.00
2023-03-04T02:25:32.284Z,2.95
2023-03-04T02:27:59.597Z,3.22
2023-03-04T02:30:26.913Z,3.08
2023-03-04T02:32:56.727Z,3.50
2023-03-04T02:35:24.119Z,3.08
2023-03-04T02:37:51.421Z,3.15
2023-03-04T02:40:30.252Z,4.15
2023-03-04T02:42:59.454Z,3.65
2023-03-04T02:45:41.555Z,3.85
2023-03-04T02:48:09.327Z,3.42
2023-03-04T02:50:44.962Z,3.60
2023-03-04T02:53:12.254Z,3.20
2023-03-04T02:55:39.641Z,3.47
2023-03-04T02:58:06.886Z,3.20
2023-03-04T03:00:34.246Z,3.50
2023-03-04T03:03:01.535Z,2.80
2023-03-04T03:05:30.205Z,3.85
2023-03-04T03:07:57.849Z,3.58
2023-03-04T03:10:25.375Z,3.10
2023-03-04T03:12:52.667Z,3.38
2023-03-04T03:15:20.309Z,3.20
2023-03-04T03:17:47.570Z,3.47
2023-03-04T03:20:15.164Z,3.05
2023-03-04T03:22:42.788Z,3.08
2023-03-04T03:25:10.773Z,3.30
2023-03-04T03:27:38.003Z,2.88
2023-03-04T03:30:06.185Z,4.18
2023-03-04T03:32:33.673Z,2.85
2023-03-04T03:35:01.028Z,4.05
2023-03-04T03:37:28.382Z,3.42
2023-03-04T03:39:55.608Z,3.00
2023-03-04T03:42:22.805Z,3.03
2023-03-04T03:44:50.337Z,2.67
2023-03-04T03:47:17.648Z,2.78
2023-03-04T03:49:44.879Z,3.25
2023-03-04T03:52:12.434Z,3.47
2023-03-04T03:54:39.733Z,2.95
2023-03-04T03:57:07.222Z,3.63
2023-03-04T03:59:34.416Z,3.00
2023-03-04T04:02:01.695Z,3.33
2023-03-04T04:04:28.978Z,2.70
2023-03-04T04:06:56.213Z,3.20
2023-03-04T04:09:23.525Z,2.75
2023-03-04T04:11:51.038Z,2.55
2023-03-04T04:14:18.302Z,2.75
2023-03-04T04:16:45.548Z,2.83
2023-03-04T04:19:17.552Z,3.10
2023-03-04T04:21:44.859Z,2.95
2023-03-04T04:24:12.215Z,3.17
2023-03-04T04:26:39.474Z,2.80
2023-03-04T04:29:06.859Z,2.90
2023-03-04T04:31:34.498Z,2.58
2023-03-04T04:34:01.964Z,3.00
2023-03-04T04:36:29.269Z,2.97
2023-03-04T04:38:57.659Z,2.30
2023-03-04T04:41:32.667Z,3.13
2023-03-04T04:43:59.896Z,3.33
2023-03-04T04:46:27.762Z,3.15
2023-03-04T04:48:54.986Z,2.70
2023-03-04T04:51:22.204Z,2.00
2023-03-04T04:53:49.839Z,2.42
2023-03-04T04:56:18.177Z,2.92
2023-03-04T04:58:45.978Z,2.60
2023-03-04T05:01:13.325Z,2.70
2023-03-04T05:03:40.885Z,3.28
2023-03-04T05:06:08.766Z,3.00
2023-03-04T05:08:36.229Z,3.13
2023-03-04T05:11:04.039Z,2.65
2023-03-04T05:13:31.326Z,3.20
2023-03-04T05:15:58.625Z,3.55
2023-03-04T05:18:27.128Z,2.63
2023-03-04T05:20:55.106Z,2.35
2023-03-04T05:23:22.448Z,3.05
2023-03-04T05:25:50.126Z,2.88
2023-03-04T05:28:17.733Z,2.70
2023-03-04T05:30:45.645Z,2.50
2023-03-04T05:33:13.851Z,2.33
2023-03-04T05:35:41.587Z,2.65
2023-03-04T05:38:10.000Z,2.92
2023-03-04T05:40:37.465Z,3.08
2023-03-04T05:43:04.629Z,3.58
2023-03-04T05:45:31.851Z,3.03
2023-03-04T05:47:59.358Z,3.42
2023-03-04T05:50:28.289Z,2.70
2023-03-04T05:52:55.493Z,3.35
2023-03-04T05:55:22.761Z,3.78
2023-03-04T05:57:50.040Z,3.45
2023-03-04T06:00:17.722Z,3.10
2023-03-04T06:02:45.312Z,3.85
2023-03-04T06:05:13.841Z,4.38
2023-03-04T06:07:43.207Z,3.92
2023-03-04T06:10:12.238Z,3.63
2023-03-04T06:12:39.479Z,3.88
2023-03-04T06:15:07.138Z,3.70
2023-03-04T06:17:34.747Z,4.32
2023-03-04T06:20:01.958Z,4.22
2023-03-04T06:22:29.509Z,4.38
2023-03-04T06:24:56.779Z,4.20
2023-03-04T06:27:24.007Z,6.60
2023-03-04T06:29:51.196Z,3.47
2023-03-04T06:32:18.710Z,4.95
2023-03-04T06:34:46.228Z,4.47
2023-03-04T06:37:13.517Z,3.63
2023-03-04T06:39:40.648Z,4.22
2023-03-04T06:42:07.858Z,5.35
2023-03-04T06:44:35.109Z,4.30
2023-03-04T06:47:02.397Z,4.32
2023-03-04T06:49:29.701Z,3.75
2023-03-04T06:51:56.979Z,4.32
2023-03-04T06:54:24.183Z,4.40
2023-03-04T06:56:51.519Z,3.38
2023-03-04T06:59:19.075Z,3.67
2023-03-04T07:01:46.320Z,3.70
2023-03-04T07:04:14.430Z,4.28
2023-03-04T07:06:41.724Z,3.78
2023-03-04T07:09:08.984Z,3.58
2023-03-04T07:11:36.243Z,4.50
2023-03-04T07:14:03.494Z,5.30
2023-03-04T07:16:30.856Z,4.18
2023-03-04T07:18:58.223Z,4.32
2023-03-04T07:21:25.712Z,5.75
2023-03-04T07:23:53.165Z,5.53
2023-03-04T07:26:20.463Z,5.68
2023-03-04T07:28:48.039Z,7.35
2023-03-04T07:31:21.641Z,4.97
2023-03-04T07:33:49.050Z,4.93
2023-03-04T07:36:16.327Z,5.53
2023-03-04T07:38:47.374Z,4.00
2023-03-04T07:41:14.924Z,4.53
2023-03-04T07:43:42.280Z,4.22
2023-03-04T07:46:09.980Z,3.80
2023-03-04T07:48:37.548Z,4.07
2023-03-04T07:51:09.788Z,3.28
2023-03-04T07:53:37.728Z,4.17
2023-03-04T07:56:06.334Z,3.83
2023-03-04T07:58:33.609Z,3.92
2023-03-04T08:01:00.866Z,3.83
2023-03-04T08:03:29.763Z,5.35
2023-03-04T08:05:58.134Z,4.18
2023-03-04T08:08:25.324Z,3.83
2023-03-04T08:10:52.646Z,3.15
2023-03-04T08:13:19.891Z,3.42
2023-03-04T08:15:47.124Z,3.38
2023-03-04T08:18:14.361Z,3.88
2023-03-04T08:20:44.802Z,3.42
2023-03-04T08:23:11.996Z,2.88
2023-03-04T08:25:40.575Z,3.50
2023-03-04T08:28:08.169Z,4.03
2023-03-04T08:30:35.623Z,3.25
2023-03-04T08:33:03.996Z,3.50
2023-03-04T08:35:31.734Z,4.57
2023-03-04T08:38:01.374Z,4.75
2023-03-04T08:40:31.110Z,4.53
2023-03-04T08:42:58.429Z,4.72
2023-03-04T08:45:25.861Z,4.32
2023-03-04T08:47:53.018Z,5.30
2023-03-04T08:50:22.291Z,5.68
2023-03-04T08:52:49.720Z,5.03
2023-03-04T08:55:17.009Z,5.13
2023-03-04T08:57:44.250Z,6.43
2023-03-04T09:00:12.192Z,4.70
2023-03-04T09:02:39.570Z,4.65
2023-03-04T09:05:07.128Z,4.70
2023-03-04T09:07:34.328Z,4.72
2023-03-04T09:10:01.515Z,5.30
2023-03-04T09:12:29.389Z,4.80
2023-03-04T09:15:10.149Z,4.75
2023-03-04T09:20:27.985Z,4.88
2023-03-04T09:22:55.203Z,4.88
2023-03-04T09:25:22.645Z,5.53
2023-03-04T09:27:52.285Z,6.85
2023-03-04T09:30:19.727Z,5.93
2023-03-04T09:32:47.262Z,6.03
2023-03-04T09:35:14.547Z,5.68
2023-03-04T09:37:41.949Z,5.72
2023-03-04T09:40:10.545Z,6.15
2023-03-04T09:42:38.974Z,5.78
2023-03-04T09:45:07.086Z,6.60
2023-03-04T09:47:38.285Z,5.03
2023-03-04T09:50:08.949Z,5.70
2023-03-04T09:52:39.310Z,4.60
2023-03-04T09:55:15.634Z,4.15
2023-03-04T09:57:55.182Z,3.72
2023-03-04T10:00:24.638Z,4.05
2023-03-04T10:03:07.235Z,3.40
2023-03-04T10:05:37.641Z,2.80
2023-03-04T10:08:17.081Z,3.03
2023-03-04T10:10:46.057Z,3.03
2023-03-04T10:13:20.648Z,2.53
2023-03-04T10:15:53.914Z,3.17
2023-03-04T10:18:32.516Z,2.55
2023-03-04T10:21:06.824Z,2.38
2023-03-04T10:23:35.211Z,1.85
2023-03-04T10:26:10.830Z,2.03
2023-03-04T10:28:38.431Z,2.30
2023-03-04T10:31:23.004Z,1.63
2023-03-04T10:33:50.468Z,2.17
2023-03-04T10:36:34.277Z,2.42
2023-03-04T10:39:10.145Z,2.13
2023-03-04T10:41:37.564Z,2.03
2023-03-04T10:44:11.844Z,2.05
2023-03-04T10:46:42.818Z,1.35
2023-03-04T10:49:15.111Z,2.00
2023-03-04T10:51:45.504Z,1.37
2023-03-04T10:54:28.201Z,2.38
2023-03-04T10:57:06.552Z,1.83
2023-03-04T11:02:36.779Z,2.08
2023-03-04T11:05:17.958Z,2.25
2023-03-04T11:07:56.812Z,2.42
2023-03-04T11:10:33.915Z,2.47
2023-03-04T11:13:04.277Z,2.58
2023-03-04T11:15:32.751Z,1.90
2023-03-04T11:18:05.128Z,2.05
2023-03-04T11:20:33.804Z,2.15
2023-03-04T11:23:15.597Z,2.35
2023-03-04T11:25:50.738Z,2.05
2023-03-04T11:28:24.137Z,2.78
2023-03-04T11:30:54.392Z,2.85
2023-03-04T11:33:34.630Z,2.10
2023-03-04T11:36:28.933Z,2.33
2023-03-04T11:38:57.022Z,2.35
2023-03-04T11:41:30.537Z,2.50
2023-03-04T11:43:57.793Z,2.55
2023-03-04T11:46:26.004Z,3.03
2023-03-04T11:48:53.332Z,3.63
2023-03-04T11:51:26.736Z,3.42
2023-03-04T11:53:54.077Z,3.30
2023-03-04T11:56:35.560Z,3.35
2023-03-04T11:59:09.304Z,3.30
2023-03-04T12:01:51.973Z,3.17
2023-03-04T12:04:25.917Z,3.08
2023-03-04T12:07:06.951Z,3.50
2023-03-04T12:09:46.693Z,3.13
2023-03-04T12:12:20.473Z,2.50
2023-03-04T12:14:49.029Z,2.60
2023-03-04T12:17:38.124Z,2.67
2023-03-04T12:20:28.500Z,2.80
2023-03-04T12:23:14.529Z,2.10
2023-03-04T12:25:41.716Z,1.90
2023-03-04T12:28:19.306Z,2.00
2023-03-04T12:30:52.793Z,1.77
2023-03-04T12:33:33.565Z,2.08
2023-03-04T12:36:04.022Z,1.77
2023-03-04T12:39:00.762Z,1.88
2023-03-04T12:41:35.946Z,2.22
2023-03-04T12:44:03.159Z,1.83
2023-03-04T12:46:39.570Z,2.25
2023-03-04T12:49:06.832Z,2.80
2023-03-04T12:51:41.588Z,2.35
2023-03-04T12:54:19.851Z,1.90
2023-03-04T12:56:52.537Z,2.28
2023-03-04T12:59:21.673Z,2.00
2023-03-04T13:02:02.840Z,2.17
2023-03-04T13:04:50.107Z,2.20
2023-03-04T13:07:40.513Z,2.13
2023-03-04T13:10:15.627Z,2.38
2023-03-04T13:13:01.651Z,2.33
2023-03-04T13:15:41.293Z,2.67
2023-03-04T13:18:27.406Z,2.53
2023-03-04T13:21:15.861Z,2.30
2023-03-04T13:23:43.202Z,2.45
2023-03-04T13:26:16.791Z,2.60
2023-03-04T13:28:44.137Z,2.72
2023-03-04T13:31:11.387Z,2.05
2023-03-04T13:33:38.724Z,3.17
2023-03-04T13:36:08.964Z,2.20
2023-03-04T13:38:37.841Z,3.03
2023-03-04T13:41:15.878Z,2.40
2023-03-04T13:43:44.141Z,2.47
2023-03-04T13:46:20.969Z,2.50
2023-03-04T13:49:08.629Z,2.13
2023-03-04T13:51:46.179Z,2.38
2023-03-04T13:54:35.070Z,3.35
2023-03-04T13:57:02.907Z,5.60
2023-03-04T13:59:43.753Z,2.88
2023-03-04T14:02:12.586Z,2.40
2023-03-04T14:04:41.467Z,2.65
2023-03-04T14:07:20.200Z,3.00
2023-03-04T14:10:02.718Z,3.17
2023-03-04T14:12:31.033Z,2.27
2023-03-04T14:15:06.254Z,3.20
2023-03-04T14:17:38.727Z,2.90
2023-03-04T14:20:07.536Z,2.72
2023-03-04T14:22:54.652Z,2.55
2023-03-04T14:25:29.530Z,2.97
2023-03-04T14:28:05.941Z,2.70
2023-03-04T14:30:42.590Z,3.40
2023-03-04T14:33:17.953Z,3.25
2023-03-04T14:35:52.722Z,2.53
2023-03-04T14:38:25.977Z,3.30
2023-03-04T14:40:59.606Z,3.42
2023-03-04T14:43:27.310Z,2.72
2023-03-04T14:45:56.174Z,2.45
2023-03-04T14:48:26.253Z,2.92
2023-03-04T14:50:54.155Z,2.60
2023-03-04T14:53:25.095Z,2.63
2023-03-04T14:56:02.221Z,2.20
2023-03-04T14:58:30.814Z,2.83
2023-03-04T15:01:07.301Z,3.15
2023-03-04T15:03:35.757Z,3.05
2023-03-04T15:06:17.511Z,2.60
2023-03-04T15:08:45.318Z,2.92
2023-03-04T15:11:21.209Z,2.10
2023-03-04T15:13:53.688Z,3.40
2023-03-04T15:16:25.440Z,3.15
2023-03-04T15:18:55.847Z,2.25
2023-03-04T15:21:34.485Z,3.05
2023-03-04T15:24:03.764Z,2.47
2023-03-04T15:26:34.833Z,2.85
2023-03-04T15:29:04.339Z,2.35
2023-03-04T15:31:31.540Z,2.53
2023-03-04T15:33:58.747Z,2.45
2023-03-04T15:36:26.108Z,2.00
2023-03-04T15:38:53.940Z,2.72
2023-03-04T15:41:25.493Z,1.90
2023-03-04T15:43:54.035Z,2.20
2023-03-04T15:46:21.815Z,2.50
2023-03-04T15:48:49.230Z,2.40
2023-03-04T15:51:18.029Z,2.03
2023-03-04T15:53:46.880Z,2.70
2023-03-04T15:56:22.770Z,2.50
2023-03-04T15:58:54.579Z,1.83
2023-03-04T16:01:22.171Z,2.13
2023-03-04T16:03:49.676Z,2.63
2023-03-04T16:06:18.835Z,2.30
2023-03-04T16:08:46.232Z,2.40
2023-03-04T16:11:21.868Z,2.70
2023-03-04T16:13:49.540Z,2.78
2023-03-04T16:16:17.140Z,3.47
2023-03-04T16:18:45.084Z,4.53
2023-03-04T16:21:17.152Z,4.03
2023-03-04T16:23:45.904Z,3.60
2023-03-04T16:26:14.989Z,4.32
2023-03-04T16:28:43.043Z,4.00
2023-03-04T16:31:14.276Z,3.47
2023-03-04T16:33:41.992Z,3.45
2023-03-04T16:36:16.926Z,2.10
2023-03-04T16:38:44.348Z,3.15
2023-03-04T16:41:15.490Z,3.10
2023-03-04T16:43:43.402Z,3.50
2023-03-04T16:46:12.788Z,3.72
2023-03-04T16:48:40.286Z,2.45
2023-03-04T16:51:15.324Z,3.00
2023-03-04T16:53:44.138Z,2.85
2023-03-04T16:56:16.091Z,2.38
2023-03-04T16:58:43.954Z,2.47
2023-03-04T17:01:18.543Z,2.85
2023-03-04T17:03:45.877Z,2.88
2023-03-04T17:06:13.679Z,2.50
2023-03-04T17:08:41.106Z,3.10
2023-03-04T17:11:08.407Z,2.92
2023-03-04T17:13:35.632Z,3.60
2023-03-04T17:16:03.896Z,2.97
2023-03-04T17:18:31.209Z,3.85
2023-03-04T17:21:08.458Z,5.03
2023-03-04T17:23:35.702Z,3.47
2023-03-04T17:26:03.091Z,4.10
2023-03-04T17:28:30.467Z,3.53
2023-03-04T17:30:57.756Z,3.17
2023-03-04T17:33:25.084Z,5.15
2023-03-04T17:35:52.330Z,4.05
2023-03-04T17:38:19.828Z,4.85
2023-03-04T17:40:47.122Z,3.15
2023-03-04T17:43:14.248Z,4.15
2023-03-04T17:45:42.427Z,3.45
2023-03-04T17:48:15.064Z,3.35
2023-03-04T17:50:49.922Z,3.58
2023-03-04T17:53:17.336Z,2.85
2023-03-04T17:55:54.512Z,3.15
2023-03-04T17:58:22.235Z,4.55
2023-03-04T18:00:50.143Z,2.63
2023-03-04T18:03:17.417Z,3.22
2023-03-04T18:05:44.605Z,3.20
2023-03-04T18:08:12.010Z,3.80
2023-03-04T18:10:39.260Z,2.78
2023-03-04T18:13:06.561Z,3.20
2023-03-04T18:15:35.337Z,3.08
2023-03-04T18:18:02.639Z,3.95
2023-03-04T18:20:29.938Z,3.63
2023-03-04T18:22:58.664Z,3.78
2023-03-04T18:25:26.008Z,4.05
2023-03-04T18:27:53.214Z,4.10
2023-03-04T18:30:27.072Z,3.47
2023-03-04T18:32:55.321Z,4.07
2023-03-04T18:35:23.980Z,3.70
2023-03-04T18:37:51.353Z,4.63
2023-03-04T18:40:18.881Z,4.03
2023-03-04T18:42:46.272Z,3.63
2023-03-04T18:45:14.034Z,5.35
2023-03-04T18:47:46.295Z,2.88
2023-03-04T18:50:13.760Z,3.13
2023-03-04T18:52:40.999Z,3.47
2023-03-04T18:55:08.433Z,4.20
2023-03-04T18:57:35.807Z,5.22
2023-03-04T19:00:04.743Z,3.42
2023-03-04T19:02:41.736Z,5.05
2023-03-04T19:05:11.818Z,4.45
2023-03-04T19:07:39.158Z,3.78
2023-03-04T19:10:07.076Z,3.33
2023-03-04T19:12:34.448Z,3.42
2023-03-04T19:15:01.770Z,3.22
2023-03-04T19:17:32.722Z,2.80
2023-03-04T19:20:00.383Z,3.15
2023-03-04T19:22:27.799Z,4.00
2023-03-04T19:24:55.029Z,3.15
2023-03-04T19:27:22.307Z,2.80
2023-03-04T19:29:49.509Z,2.88
2023-03-04T19:32:20.275Z,2.83
2023-03-04T19:34:47.959Z,2.50
2023-03-04T19:37:16.585Z,2.97
2023-03-04T19:39:44.189Z,3.10
2023-03-04T19:42:12.390Z,2.92
2023-03-04T19:44:39.981Z,2.60
2023-03-04T19:47:07.472Z,3.42
2023-03-04T19:49:35.128Z,2.90
2023-03-04T19:52:02.541Z,2.58
2023-03-04T19:54:30.489Z,2.72
2023-03-04T19:56:59.229Z,2.80
2023-03-04T19:59:26.473Z,2.78
2023-03-04T20:01:55.166Z,2.33
2023-03-04T20:04:22.640Z,2.20
2023-03-04T20:06:50.679Z,2.60
2023-03-04T20:09:18.707Z,2.45
2023-03-04T20:11:57.806Z,2.38
2023-03-04T20:14:26.380Z,3.30
2023-03-04T20:16:53.608Z,2.83
2023-03-04T20:19:20.873Z,3.10
2023-03-04T20:21:48.081Z,2.80
2023-03-04T20:24:15.522Z,2.50
2023-03-04T20:26:42.824Z,3.22
2023-03-04T20:29:10.417Z,2.67
2023-03-04T20:31:39.115Z,2.67
2023-03-04T20:34:06.938Z,3.22
2023-03-04T20:36:34.844Z,3.35
2023-03-04T20:39:05.401Z,3.03
2023-03-04T20:41:35.720Z,3.17
2023-03-04T20:44:03.038Z,2.75
2023-03-04T20:46:38.158Z,4.97
2023-03-04T20:49:07.605Z,3.05
2023-03-04T20:51:35.541Z,3.65
2023-03-04T20:54:02.889Z,2.75
2023-03-04T20:56:30.257Z,3.17
2023-03-04T20:58:58.890Z,3.53
2023-03-04T21:01:26.233Z,3.63
2023-03-04T21:03:53.735Z,3.28
2023-03-04T21:06:21.146Z,3.60
2023-03-04T21:08:48.424Z,3.88
2023-03-04T21:11:16.800Z,2.65
2023-03-04T21:13:45.416Z,3.75
2023-03-04T21:16:16.811Z,2.92
2023-03-04T21:18:44.994Z,2.90
2023-03-04T21:21:13.896Z,3.42
2023-03-04T21:23:41.230Z,3.20
2023-03-04T21:26:08.711Z,3.13
2023-03-04T21:28:35.944Z,2.88
2023-03-04T21:31:03.350Z,3.67
2023-03-04T21:33:36.576Z,3.13
2023-03-04T21:38:31.437Z,5.00
2023-03-04T21:40:58.643Z,3.80
2023-03-04T21:43:25.868Z,3.80
2023-03-04T21:45:54.406Z,4.53
2023-03-04T21:48:21.746Z,3.25
2023-03-04T21:50:50.309Z,3.03
2023-03-04T21:53:21.702Z,4.85
2023-03-04T21:55:49.551Z,3.45
2023-03-04T21:58:16.828Z,2.63
2023-03-04T22:00:44.658Z,2.92
2023-03-04T22:03:12.057Z,3.00
2023-03-04T22:05:40.691Z,3.38
2023-03-04T22:08:08.066Z,2.83
2023-03-04T22:10:37.818Z,3.35
2023-03-04T22:13:10.106Z,3.40
2023-03-04T22:15:38.195Z,2.90
2023-03-04T22:18:06.108Z,4.05
2023-03-04T22:20:37.601Z,3.17
2023-03-04T22:23:05.037Z,3.03
2023-03-04T22:25:37.480Z,3.42
2023-03-04T22:28:06.126Z,2.67
2023-03-04T22:30:33.644Z,3.30
2023-03-04T22:33:01.071Z,4.88
2023-03-04T22:35:28.586Z,3.20
2023-03-04T22:37:55.909Z,3.70
2023-03-04T22:40:23.521Z,3.45
2023-03-04T22:42:51.048Z,3.97
2023-03-04T22:45:18.895Z,3.97
2023-03-04T22:47:52.875Z,3.33
2023-03-04T22:50:21.254Z,4.22
2023-03-04T22:52:49.339Z,3.25
2023-03-04T22:55:17.133Z,3.70
2023-03-04T22:57:44.630Z,3.13
2023-03-04T23:00:22.753Z,3.38
2023-03-04T23:02:50.470Z,3.22
2023-03-04T23:05:20.846Z,3.50
2023-03-04T23:07:48.567Z,4.53
2023-03-04T23:10:17.809Z,2.83
2023-03-04T23:12:46.540Z,3.35
2023-03-04T23:15:14.345Z,3.83
2023-03-04T23:17:41.798Z,3.13
2023-03-04T23:20:11.720Z,4.03
2023-03-04T23:22:39.079Z,3.78
2023-03-04T23:25:06.731Z,3.60
2023-03-04T23:27:34.056Z,4.05
2023-03-04T23:30:01.863Z,3.78
2023-03-04T23:32:29.226Z,4.13
2023-03-04T23:34:56.885Z,3.53
2023-03-04T23:37:24.234Z,4.15
2023-03-04T23:39:51.527Z,3.80
2023-03-04T23:42:18.827Z,3.78
2023-03-04T23:44:46.134Z,3.33
2023-03-04T23:47:13.409Z,3.85
2023-03-04T23:49:40.897Z,3.08
2023-03-04T23:52:08.314Z,2.95
2023-03-04T23:54:35.577Z,3.45
2023-03-04T23:57:02.888Z,3.20
2023-03-04T23:59:30.286Z,4.22
